Peter R. Cresswell — VCBZ — position and weather

sailwx.info

Track history (hours):
 
Tides and Currents Weather Stations Pressure Air Temp Water Temp Dewpoint Dewpoint Depression Visibility Wind Speed Wind Dir Waves Ship Positions

Peter R. Cresswell

ex Algowest

Last reported at 2014-Nov-23 05:00 UTC. Time now 2014-Nov-23 05:42 UTC.
Position N 47°24' W 087°12'.

Length 219.2 m; beam 23.2 m; draft 8.7 m.

Type: Ship. MMSI: 316001697.

Wind from 180 at 11 knots

Barometer 1006.4 mb
Air temperature 3.9 ° C
Dewpoint 1.4 ° C
Water temperature 4.8 ° C

Date/timePositionNaut miles runAvg speedWind from/ knotsBaromVisibWave heightAir tempDewpointWater temp
2014-Nov-23 05:00N 47°24' W 087°12'1413.6 180 / 111006.4 3.9 1.4 4.8
2014-Nov-23 04:00N 47°18' W 086°54'1413.6 210 / 51006.6 4.1 1.4 4.9
2014-Nov-23 03:00N 47°12' W 086°36'1212.2 190 / 81006.5 4.0 1.9 5.6
2014-Nov-23 02:00N 47°12' W 086°18'1010.1 190 / 131006.5 3.4 1.3 5.0
2014-Nov-23 01:00N 47°06' W 086°06'1413.7 190 / 111006.6 3.4 1.1 5.5
2014-Nov-23 00:00N 47°00' W 085°48'1010.2 230 / 101006.7 3.7 0.5 5.5
2014-Nov-22 23:00N 46°54' W 085°36'1212.3 250 / 91006.6 3.5-0.1 6.0
2014-Nov-22 22:00N 46°54' W 085°18'1413.7 210 / 151006.3 2.7-0.1 5.6
2014-Nov-22 21:00N 46°48' W 085°00'7 7.3 210 / 121006.3 2.7-0.2 4.6
2014-Nov-22 20:00N 46°42' W 084°54'2010.2 220 / 151006.3 2.6-0.2 6.6
2014-Nov-22 18:00N 46°30' W 084°30'8 8.3 250 / 171006.7 3.1 0.4 4.8
2014-Nov-22 17:00N 46°30' W 084°18'6 6.0 250 / 81007.5 2.8 0.3 3.9
2014-Nov-22 16:00N 46°24' W 084°18'7 7.3 230 / 121008.3 2.7 0.8 3.7
2014-Nov-22 15:00N 46°18' W 084°12'7 7.3 250 / 131008.6 2.8 1.1 3.5
2014-Nov-22 14:00N 46°12' W 084°06'7 7.3 240 / 151009.4 2.3 1.1 2.9
2014-Nov-22 13:00N 46°06' W 084°00'20 9.9 230 / 211008.0 1.8-0.0 2.0
2014-Nov-22 11:00N 45°48' W 083°48'1010.3 220 / 231011.8 1.5-1.9 5.5
2014-Nov-22 10:00N 45°42' W 083°36'1514.6 220 / 251012.9 0.9-3.4 5.9
2014-Nov-22 09:00N 45°30' W 083°24'7 7.3 210 / 251014.6 -0.5-6.1 6.4
2014-Nov-22 08:00N 45°24' W 083°18'76 9.5 210 / 221016.2 -1.2-7.5 6.8
2014-Nov-22 00:00N 44°12' W 082°42'1010.5 210 / 221027.8 -3.7-9.7 6.8
2014-Nov-21 23:00N 44°06' W 082°30'1312.8 210 / 191028.6 -3.5-9.7 7.1
2014-Nov-21 22:00N 43°54' W 082°24'7 7.4 220 / 171028.8 -3.5-9.7 7.4
2014-Nov-21 21:00N 43°48' W 082°18'6 6.0 230 / 131029.4 -3.8-10.3 7.5
2014-Nov-21 20:00N 43°42' W 082°18'1212.0 240 / 131029.8 -4.5-11.7 7.5
2014-Nov-21 19:00N 43°30' W 082°18'6 6.0 260 / 131030.1 -5.0-12.0 7.7
2014-Nov-21 18:00N 43°24' W 082°18'6 6.0 250 / 121030.9 -5.7-11.3 7.6
2014-Nov-21 17:00N 43°18' W 082°18'1312.8 260 / 141031.1 -6.0-13.5 7.5
2014-Nov-21 16:00N 43°06' W 082°24'1212.0 260 / 101031.3 -7.1-12.0 6.2
2014-Nov-21 15:00N 42°54' W 082°24'7 7.4 280 / 61031.2 -9.1-12.2 5.8
2014-Nov-21 14:00N 42°48' W 082°30'6 6.0 280 / 71030.6 -11.1-13.1 5.7
2014-Nov-21 13:00N 42°42' W 082°30'1312.8 280 / 91029.2 -10.4-12.5 5.6
2014-Nov-21 12:00N 42°30' W 082°36'9 8.8 300 / 101028.3 -9.0-10.9 5.2
2014-Nov-21 11:00N 42°30' W 082°48'1312.8 290 / 151027.7 -8.8-11.0 1.9
2014-Nov-21 10:00N 42°18' W 082°54'9 8.9 290 / 101026.9 -8.5-11.3 1.9
2014-Nov-21 09:00N 42°18' W 083°06'0 0.0 280 / 11 -8.2-11.4 1.4
2014-Nov-21 08:00N 42°18' W 083°06'0 0.0 270 / 11 -7.7-11.0 1.3
2014-Nov-21 07:00N 42°18' W 083°06'0 0.0 300 / 12 -6.6-10.4 4.3
2014-Nov-21 06:00N 42°18' W 083°06'0 0.0 270 / 7 -6.5-10.4
2014-Nov-21 00:00N 42°18' W 083°06'0 0.0 270 / 12 -4.1-9.3
2014-Nov-20 18:00N 42°18' W 083°06'0 0.0 230 / 14 -2.7-8.7
2014-Nov-20 12:00N 42°18' W 083°06'0 0.0 230 / 13 -4.6-8.7
2014-Nov-20 06:00N 42°18' W 083°06'0 0.0 230 / 12 -3.3-6.1
2014-Nov-20 00:00N 42°18' W 083°06'0 0.0 240 / 16 -0.4-3.9
2014-Nov-19 19:00N 42°18' W 083°06'0 0.0 200 / 17 -4.1-6.7
2014-Nov-19 18:00N 42°18' W 083°06'0 0.0 180 / 16 -4.6-6.2
2014-Nov-19 17:00N 42°18' W 083°06'0 0.0 180 / 16 -4.7-5.9
2014-Nov-19 16:00N 42°18' W 083°06'0 0.0 180 / 15 -4.5-7.4
2014-Nov-19 15:00N 42°18' W 083°06'0 0.0 180 / 16 -4.8-9.3 9.0
2014-Nov-19 14:00N 42°18' W 083°06'0 0.0 190 / 9 -6.0-10.0 8.7
2014-Nov-19 13:00N 42°18' W 083°06'0 0.0 200 / 9 -6.9-11.2 5.1
2014-Nov-19 12:00N 42°18' W 083°06'1212.0 220 / 151018.7 -7.7-11.4 3.0
2014-Nov-19 11:00N 42°06' W 083°06'80 2.0 230 / 161019.2 -8.2-12.2 2.8
2014-Nov-17 18:00N 42°06' W 081°18'1110.7 280 / 241001.6 1.2 0.210.3
2014-Nov-17 17:00N 42°12' W 081°06'1514.6 300 / 211002.6 1.8 0.710.1
2014-Nov-17 16:00N 42°18' W 080°48'9 8.9 320 / 171002.9 1.7 0.810.1
2014-Nov-17 15:00N 42°18' W 080°36'1110.7 210 / 111002.6 2.9 1.8 9.8
2014-Nov-17 14:00N 42°24' W 080°24'813.7 190 / 101004.3 2.7 1.7 9.7
2014-Nov-17 13:24N 42°27' W 080°14'715.8
2014-Nov-17 13:00N 42°30' W 080°06'3 7.1 200 / 81005.4 2.7 1.6 9.9
2014-Nov-17 12:32N 42°31' W 080°02'814.4
2014-Nov-17 12:00N 42°36' W 079°54'5 8.8 210 / 101006.1 3.3 1.510.9
2014-Nov-17 11:29N 42°37' W 079°48'714.0
2014-Nov-17 11:00N 42°42' W 079°42'1110.7 190 / 111006.5 3.1 1.310.3
2014-Nov-17 10:00N 42°48' W 079°30'9 8.8 180 / 111007.8 3.0 1.3 9.7
2014-Nov-17 09:00N 42°48' W 079°18'7 7.4 180 / 131009.3 2.0 1.6 8.6
2014-Nov-17 08:00N 42°54' W 079°12'0 0.0 070 / 41011.3 -0.4-0.5 8.2
2014-Nov-17 07:00N 42°54' W 079°12'1212.0 040 / 3 -0.3-0.4 8.2
2014-Nov-17 06:00N 43°06' W 079°12'0 0.0 050 / 4 -0.3-0.5 8.2
2014-Nov-17 05:00N 43°06' W 079°12'0 0.0 050 / 4 -0.3-0.4 8.4
2014-Nov-17 04:00N 43°06' W 079°12'0 0.0 070 / 1 -0.2-0.3 8.4
2014-Nov-17 03:00N 43°06' W 079°12'6 6.0 120 / 3 -0.4-0.5 8.6
2014-Nov-17 02:00N 43°12' W 079°12'0 0.0 210 / 11002.2 -0.2-0.4 8.7
2014-Nov-17 01:00N 43°12' W 079°12'0 0.0 220 / 21014.2 -0.4-0.5 8.5
2014-Nov-17 00:00N 43°12' W 079°12'0 0.0 250 / 11016.4 0.1-0.0 8.4
2014-Nov-16 23:00N 43°12' W 079°12'0 0.0 220 / 31017.9 -0.2-0.5 8.4
2014-Nov-16 22:00N 43°12' W 079°12'6 6.0 220 / 51018.3 -0.0-0.8 8.4
2014-Nov-16 21:00N 43°18' W 079°12'0 0.0 240 / 111018.3 0.7-0.7 7.1
2014-Nov-16 20:00N 43°18' W 079°12'7 7.4 250 / 101017.9 0.6-0.9 7.4
2014-Nov-16 19:00N 43°24' W 079°06'1110.6 260 / 111018.6 0.6-1.2 8.1
2014-Nov-16 18:00N 43°30' W 078°54'4 4.4 270 / 121019.1 0.4-0.9 7.5
2014-Nov-16 17:00N 43°30' W 078°48'7 7.4 240 / 111019.5 0.3-0.6 7.4
2014-Nov-16 16:00N 43°36' W 078°42'1110.6 240 / 121020.2 0.5-1.1 6.2
2014-Nov-16 15:00N 43°42' W 078°30'6 6.0 230 / 131020.8 0.6-1.3 6.2
2014-Nov-16 14:00N 43°48' W 078°30'4 4.3 240 / 151021.4 0.7-1.1 4.8
2014-Nov-16 13:00N 43°48' W 078°36'7 7.4 220 / 151021.5 0.6-1.6 5.1
2014-Nov-16 12:00N 43°54' W 078°42'0 0.0 220 / 141021.0 0.6-3.9
2014-Nov-16 11:00N 43°54' W 078°42'0 0.0 240 / 91021.5 1.2-3.8
2014-Nov-16 10:00N 43°54' W 078°42'0 0.0 230 / 171022.0 0.9-3.2
2014-Nov-16 09:00N 43°54' W 078°42'0 0.0 240 / 121022.5 1.5-5.3
2014-Nov-16 08:00N 43°54' W 078°42'0 0.0 240 / 121022.8 1.5-5.2
2014-Nov-16 07:00N 43°54' W 078°42'0 0.0 240 / 141022.9 1.3-5.4
2014-Nov-16 06:00N 43°54' W 078°42'0 0.0 260 / 71023.5 0.8-6.0
2014-Nov-16 05:00N 43°54' W 078°42'0 0.0 280 / 81023.8 0.7-7.0
2014-Nov-16 04:00N 43°54' W 078°42'0 0.0 290 / 81023.8 0.5-7.3
2014-Nov-16 03:00N 43°54' W 078°42'0 0.0 290 / 61024.0 0.2-7.0
2014-Nov-16 02:00N 43°54' W 078°42'0 0.0 280 / 91024.3 0.5-6.9
2014-Nov-16 01:00N 43°54' W 078°42'0 0.0 260 / 71024.7 0.7-6.2
2014-Nov-16 00:00N 43°54' W 078°42'0 0.0 270 / 51025.0 0.6-7.1
2014-Nov-15 23:00N 43°54' W 078°42'0 0.0 290 / 91024.8 0.8-7.4
2014-Nov-15 22:00N 43°54' W 078°42'0 0.0 280 / 151024.3 1.3-7.8
2014-Nov-15 21:00N 43°54' W 078°42'0 0.0 240 / 241023.7 1.7-6.1
2014-Nov-15 20:00N 43°54' W 078°42'0 0.0 240 / 231023.9 2.3-5.7 6.0
2014-Nov-15 19:00N 43°54' W 078°42'0 0.0 230 / 191024.5 2.1-5.0 6.2
2014-Nov-15 18:00N 43°54' W 078°42'0 0.0 240 / 151025.1 2.1-2.8 6.1
2014-Nov-15 17:00N 43°54' W 078°42'1313.0 240 / 141025.2 1.6-3.3 5.9
2014-Nov-15 16:00N 43°54' W 078°24'1110.5 260 / 101026.3 0.8-2.2 5.2
2014-Nov-15 15:00N 43°48' W 078°12'1313.0 270 / 111026.2 0.5-3.9 5.3
2014-Nov-15 14:00N 43°48' W 077°54'1313.0 280 / 91026.0 0.5-5.6 5.8
2014-Nov-15 13:00N 43°48' W 077°36'9 8.7 290 / 81025.5 0.6-7.3 7.4
2014-Nov-15 12:00N 43°48' W 077°24'1313.0 300 / 121024.9 0.7-8.3 8.5
2014-Nov-15 11:00N 43°48' W 077°06'1110.5 310 / 111024.9 -0.1-8.110.9
2014-Nov-15 10:00N 43°54' W 076°54'7 7.4 290 / 171024.5 -1.2-7.0 9.5
2014-Nov-15 09:00N 44°00' W 076°48'7 7.4 290 / 121024.2 -1.9-7.010.2
2014-Nov-15 08:00N 44°06' W 076°54'9 8.6 280 / 101024.2 -2.7-6.010.3
2014-Nov-15 07:00N 44°06' W 077°06'0 0.0 270 / 31023.9 -3.9-7.4
2014-Nov-15 06:00N 44°06' W 077°06'0 0.0 270 / 31023.6 -3.8-7.1
2014-Nov-15 05:00N 44°06' W 077°06'0 0.0 1023.2 -2.8-6.5
2014-Nov-15 04:00N 44°06' W 077°06'0 0.0 250 / 31022.6 -3.3-7.0
2014-Nov-15 03:00N 44°06' W 077°06'0 0.0 230 / 11022.3 -2.6-6.9
2014-Nov-15 02:00N 44°06' W 077°06'0 0.0 270 / 51021.8 -2.6-7.5
2014-Nov-15 01:00N 44°06' W 077°06'0 0.0 260 / 41021.3 -1.9-8.1
2014-Nov-15 00:00N 44°06' W 077°06'0 0.0 260 / 41020.6 -1.5-8.2
2014-Nov-14 23:00N 44°06' W 077°06'0 0.0 260 / 51019.8 -0.9-9.1
2014-Nov-14 22:00N 44°06' W 077°06'0 0.0 240 / 31019.1 -0.2-8.7
2014-Nov-14 19:00N 44°06' W 077°06'0 0.0 270 / 71017.3 1.8-8.3
2014-Nov-14 18:00N 44°06' W 077°06'0 0.0 280 / 71017.4 1.4-7.6 9.2
2014-Nov-14 16:00N 44°06' W 077°06'0 0.0 290 / 61017.8 0.8-4.7 7.9
2014-Nov-14 15:00N 44°06' W 077°06'0 0.0 310 / 141017.1 -1.1-4.1 8.3
2014-Nov-14 12:00N 44°06' W 077°06'0 0.0 250 / 151016.0 -1.9-4.7
2014-Nov-14 07:00N 44°06' W 077°06'0 0.0 270 / 161015.7 -1.3-4.7
2014-Nov-14 06:00N 44°06' W 077°06'0 0.0 280 / 141015.8 -0.9-4.2
2014-Nov-14 05:00N 44°06' W 077°06'0 0.0 270 / 131016.0 -0.5-3.4
2014-Nov-14 04:00N 44°06' W 077°06'0 0.0 270 / 111016.1 -0.2-2.2
2014-Nov-14 03:00N 44°06' W 077°06'0 0.0 270 / 81016.4 -0.1-1.6 8.9
2014-Nov-14 02:00N 44°06' W 077°06'0 0.0 300 / 131016.3 0.5-2.1 8.8
2014-Nov-14 01:00N 44°06' W 077°06'7 7.4 270 / 111016.1 1.1-1.5 8.8
2014-Nov-14 00:00N 44°00' W 077°00'1110.5 260 / 171015.4 1.8-2.311.1
2014-Nov-13 23:00N 44°06' W 076°48'1212.0 260 / 141015.4 1.4-1.910.8
2014-Nov-13 22:00N 43°54' W 076°48'7 7.4 270 / 201016.0 1.6-0.910.4
2014-Nov-13 21:00N 43°48' W 076°54'1414.3 270 / 161016.6 1.5-1.210.6
2014-Nov-13 20:00N 43°42' W 077°12'1313.0 280 / 181016.8 1.7-1.0 9.8
2014-Nov-13 19:00N 43°42' W 077°30'1414.3 240 / 151017.1 2.1 1.210.3
2014-Nov-13 18:00N 43°36' W 077°48'1313.0 260 / 181017.6 2.1 0.510.1
2014-Nov-13 17:00N 43°36' W 078°06'1110.6 240 / 161018.5 2.1 0.210.2
2014-Nov-13 16:00N 43°30' W 078°18'1414.4 230 / 161019.2 2.2-0.1 9.6
2014-Nov-13 15:00N 43°24' W 078°36'1313.1 260 / 141019.5 2.9-2.3 8.3
2014-Nov-13 14:00N 43°24' W 078°54'1110.6 270 / 161019.8 2.4-3.1 8.6
2014-Nov-13 13:00N 43°18' W 079°06'7 7.4 270 / 151020.0 1.9-3.4 8.0
2014-Nov-13 12:00N 43°12' W 079°12'0 0.0 260 / 71018.6 1.4-3.310.1
2014-Nov-13 11:00N 43°12' W 079°12'0 0.0 270 / 111018.0 1.5-3.910.1
2014-Nov-13 10:00N 43°12' W 079°12'0 0.0 260 / 81016.9 1.1-4.3 9.9
2014-Nov-13 09:00N 43°12' W 079°12'6 6.0 270 / 8 0.9-5.3 9.9
2014-Nov-13 08:00N 43°06' W 079°12'0 0.0 270 / 6 0.8-5.510.1
2014-Nov-13 07:00N 43°06' W 079°12'0 0.0 270 / 10 0.5-6.3 9.9
2014-Nov-13 06:00N 43°06' W 079°12'6 6.0 280 / 11 0.5-6.3 9.8
2014-Nov-13 05:00N 43°00' W 079°12'   280 / 7 0.8-6.110.2
Track history (hours):
 
Tides and Currents Weather Stations Pressure Air Temp Water Temp Dewpoint Dewpoint Depression Visibility Wind Speed Wind Dir Waves Ship Positions

Peter R. Cresswell

ex Algowest

Last reported at 2014-Nov-23 05:00 UTC. Time now 2014-Nov-23 05:42 UTC.
Position N 47°24' W 087°12'.

Length 219.2 m; beam 23.2 m; draft 8.7 m.

Type: Ship. MMSI: 316001697.

Wind from 180 at 11 knots

Barometer 1006.4 mb
Air temperature 3.9 ° C
Dewpoint 1.4 ° C
Water temperature 4.8 ° C

Date/timePositionNaut miles runAvg speedWind from/ knotsBaromVisibWave heightAir tempDewpointWater temp
2014-Nov-23 05:00N 47°24' W 087°12'1413.6 180 / 111006.4 3.9 1.4 4.8
2014-Nov-23 04:00N 47°18' W 086°54'1413.6 210 / 51006.6 4.1 1.4 4.9
2014-Nov-23 03:00N 47°12' W 086°36'1212.2 190 / 81006.5 4.0 1.9 5.6
2014-Nov-23 02:00N 47°12' W 086°18'1010.1 190 / 131006.5 3.4 1.3 5.0
2014-Nov-23 01:00N 47°06' W 086°06'1413.7 190 / 111006.6 3.4 1.1 5.5
2014-Nov-23 00:00N 47°00' W 085°48'1010.2 230 / 101006.7 3.7 0.5 5.5
2014-Nov-22 23:00N 46°54' W 085°36'1212.3 250 / 91006.6 3.5-0.1 6.0
2014-Nov-22 22:00N 46°54' W 085°18'1413.7 210 / 151006.3 2.7-0.1 5.6
2014-Nov-22 21:00N 46°48' W 085°00'7 7.3 210 / 121006.3 2.7-0.2 4.6
2014-Nov-22 20:00N 46°42' W 084°54'2010.2 220 / 151006.3 2.6-0.2 6.6
2014-Nov-22 18:00N 46°30' W 084°30'8 8.3 250 / 171006.7 3.1 0.4 4.8
2014-Nov-22 17:00N 46°30' W 084°18'6 6.0 250 / 81007.5 2.8 0.3 3.9
2014-Nov-22 16:00N 46°24' W 084°18'7 7.3 230 / 121008.3 2.7 0.8 3.7
2014-Nov-22 15:00N 46°18' W 084°12'7 7.3 250 / 131008.6 2.8 1.1 3.5
2014-Nov-22 14:00N 46°12' W 084°06'7 7.3 240 / 151009.4 2.3 1.1 2.9
2014-Nov-22 13:00N 46°06' W 084°00'20 9.9 230 / 211008.0 1.8-0.0 2.0
2014-Nov-22 11:00N 45°48' W 083°48'1010.3 220 / 231011.8 1.5-1.9 5.5
2014-Nov-22 10:00N 45°42' W 083°36'1514.6 220 / 251012.9 0.9-3.4 5.9
2014-Nov-22 09:00N 45°30' W 083°24'7 7.3 210 / 251014.6 -0.5-6.1 6.4
2014-Nov-22 08:00N 45°24' W 083°18'76 9.5 210 / 221016.2 -1.2-7.5 6.8
2014-Nov-22 00:00N 44°12' W 082°42'1010.5 210 / 221027.8 -3.7-9.7 6.8
2014-Nov-21 23:00N 44°06' W 082°30'1312.8 210 / 191028.6 -3.5-9.7 7.1
2014-Nov-21 22:00N 43°54' W 082°24'7 7.4 220 / 171028.8 -3.5-9.7 7.4
2014-Nov-21 21:00N 43°48' W 082°18'6 6.0 230 / 131029.4 -3.8-10.3 7.5
2014-Nov-21 20:00N 43°42' W 082°18'1212.0 240 / 131029.8 -4.5-11.7 7.5
2014-Nov-21 19:00N 43°30' W 082°18'6 6.0 260 / 131030.1 -5.0-12.0 7.7
2014-Nov-21 18:00N 43°24' W 082°18'6 6.0 250 / 121030.9 -5.7-11.3 7.6
2014-Nov-21 17:00N 43°18' W 082°18'1312.8 260 / 141031.1 -6.0-13.5 7.5
2014-Nov-21 16:00N 43°06' W 082°24'1212.0 260 / 101031.3 -7.1-12.0 6.2
2014-Nov-21 15:00N 42°54' W 082°24'7 7.4 280 / 61031.2 -9.1-12.2 5.8
2014-Nov-21 14:00N 42°48' W 082°30'6 6.0 280 / 71030.6 -11.1-13.1 5.7
2014-Nov-21 13:00N 42°42' W 082°30'1312.8 280 / 91029.2 -10.4-12.5 5.6
2014-Nov-21 12:00N 42°30' W 082°36'9 8.8 300 / 101028.3 -9.0-10.9 5.2
2014-Nov-21 11:00N 42°30' W 082°48'1312.8 290 / 151027.7 -8.8-11.0 1.9
2014-Nov-21 10:00N 42°18' W 082°54'9 8.9 290 / 101026.9 -8.5-11.3 1.9
2014-Nov-21 09:00N 42°18' W 083°06'0 0.0 280 / 11 -8.2-11.4 1.4
2014-Nov-21 08:00N 42°18' W 083°06'0 0.0 270 / 11 -7.7-11.0 1.3
2014-Nov-21 07:00N 42°18' W 083°06'0 0.0 300 / 12 -6.6-10.4 4.3
2014-Nov-21 06:00N 42°18' W 083°06'0 0.0 270 / 7 -6.5-10.4
2014-Nov-21 00:00N 42°18' W 083°06'0 0.0 270 / 12 -4.1-9.3
2014-Nov-20 18:00N 42°18' W 083°06'0 0.0 230 / 14 -2.7-8.7
2014-Nov-20 12:00N 42°18' W 083°06'0 0.0 230 / 13 -4.6-8.7
2014-Nov-20 06:00N 42°18' W 083°06'0 0.0 230 / 12 -3.3-6.1
2014-Nov-20 00:00N 42°18' W 083°06'0 0.0 240 / 16 -0.4-3.9
2014-Nov-19 19:00N 42°18' W 083°06'0 0.0 200 / 17 -4.1-6.7
2014-Nov-19 18:00N 42°18' W 083°06'0 0.0 180 / 16 -4.6-6.2
2014-Nov-19 17:00N 42°18' W 083°06'0 0.0 180 / 16 -4.7-5.9
2014-Nov-19 16:00N 42°18' W 083°06'0 0.0 180 / 15 -4.5-7.4
2014-Nov-19 15:00N 42°18' W 083°06'0 0.0 180 / 16 -4.8-9.3 9.0
2014-Nov-19 14:00N 42°18' W 083°06'0 0.0 190 / 9 -6.0-10.0 8.7
2014-Nov-19 13:00N 42°18' W 083°06'0 0.0 200 / 9 -6.9-11.2 5.1
2014-Nov-19 12:00N 42°18' W 083°06'1212.0 220 / 151018.7 -7.7-11.4 3.0
2014-Nov-19 11:00N 42°06' W 083°06'80 2.0 230 / 161019.2 -8.2-12.2 2.8
2014-Nov-17 18:00N 42°06' W 081°18'1110.7 280 / 241001.6 1.2 0.210.3
2014-Nov-17 17:00N 42°12' W 081°06'1514.6 300 / 211002.6 1.8 0.710.1
2014-Nov-17 16:00N 42°18' W 080°48'9 8.9 320 / 171002.9 1.7 0.810.1
2014-Nov-17 15:00N 42°18' W 080°36'1110.7 210 / 111002.6 2.9 1.8 9.8
2014-Nov-17 14:00N 42°24' W 080°24'813.7 190 / 101004.3 2.7 1.7 9.7
2014-Nov-17 13:24N 42°27' W 080°14'715.8
2014-Nov-17 13:00N 42°30' W 080°06'3 7.1 200 / 81005.4 2.7 1.6 9.9
2014-Nov-17 12:32N 42°31' W 080°02'814.4
2014-Nov-17 12:00N 42°36' W 079°54'5 8.8 210 / 101006.1 3.3 1.510.9
2014-Nov-17 11:29N 42°37' W 079°48'714.0
2014-Nov-17 11:00N 42°42' W 079°42'1110.7 190 / 111006.5 3.1 1.310.3
2014-Nov-17 10:00N 42°48' W 079°30'9 8.8 180 / 111007.8 3.0 1.3 9.7
2014-Nov-17 09:00N 42°48' W 079°18'7 7.4 180 / 131009.3 2.0 1.6 8.6
2014-Nov-17 08:00N 42°54' W 079°12'0 0.0 070 / 41011.3 -0.4-0.5 8.2
2014-Nov-17 07:00N 42°54' W 079°12'1212.0 040 / 3 -0.3-0.4 8.2
2014-Nov-17 06:00N 43°06' W 079°12'0 0.0 050 / 4 -0.3-0.5 8.2
2014-Nov-17 05:00N 43°06' W 079°12'0 0.0 050 / 4 -0.3-0.4 8.4
2014-Nov-17 04:00N 43°06' W 079°12'0 0.0 070 / 1 -0.2-0.3 8.4
2014-Nov-17 03:00N 43°06' W 079°12'6 6.0 120 / 3 -0.4-0.5 8.6
2014-Nov-17 02:00N 43°12' W 079°12'0 0.0 210 / 11002.2 -0.2-0.4 8.7
2014-Nov-17 01:00N 43°12' W 079°12'0 0.0 220 / 21014.2 -0.4-0.5 8.5
2014-Nov-17 00:00N 43°12' W 079°12'0 0.0 250 / 11016.4 0.1-0.0 8.4
2014-Nov-16 23:00N 43°12' W 079°12'0 0.0 220 / 31017.9 -0.2-0.5 8.4
2014-Nov-16 22:00N 43°12' W 079°12'6 6.0 220 / 51018.3 -0.0-0.8 8.4
2014-Nov-16 21:00N 43°18' W 079°12'0 0.0 240 / 111018.3 0.7-0.7 7.1
2014-Nov-16 20:00N 43°18' W 079°12'7 7.4 250 / 101017.9 0.6-0.9 7.4
2014-Nov-16 19:00N 43°24' W 079°06'1110.6 260 / 111018.6 0.6-1.2 8.1
2014-Nov-16 18:00N 43°30' W 078°54'4 4.4 270 / 121019.1 0.4-0.9 7.5
2014-Nov-16 17:00N 43°30' W 078°48'7 7.4 240 / 111019.5 0.3-0.6 7.4
2014-Nov-16 16:00N 43°36' W 078°42'1110.6 240 / 121020.2 0.5-1.1 6.2
2014-Nov-16 15:00N 43°42' W 078°30'6 6.0 230 / 131020.8 0.6-1.3 6.2
2014-Nov-16 14:00N 43°48' W 078°30'4 4.3 240 / 151021.4 0.7-1.1 4.8
2014-Nov-16 13:00N 43°48' W 078°36'7 7.4 220 / 151021.5 0.6-1.6 5.1
2014-Nov-16 12:00N 43°54' W 078°42'0 0.0 220 / 141021.0 0.6-3.9
2014-Nov-16 11:00N 43°54' W 078°42'0 0.0 240 / 91021.5 1.2-3.8
2014-Nov-16 10:00N 43°54' W 078°42'0 0.0 230 / 171022.0 0.9-3.2
2014-Nov-16 09:00N 43°54' W 078°42'0 0.0 240 / 121022.5 1.5-5.3
2014-Nov-16 08:00N 43°54' W 078°42'0 0.0 240 / 121022.8 1.5-5.2
2014-Nov-16 07:00N 43°54' W 078°42'0 0.0 240 / 141022.9 1.3-5.4
2014-Nov-16 06:00N 43°54' W 078°42'0 0.0 260 / 71023.5 0.8-6.0
2014-Nov-16 05:00N 43°54' W 078°42'0 0.0 280 / 81023.8 0.7-7.0
2014-Nov-16 04:00N 43°54' W 078°42'0 0.0 290 / 81023.8 0.5-7.3
2014-Nov-16 03:00N 43°54' W 078°42'0 0.0 290 / 61024.0 0.2-7.0
2014-Nov-16 02:00N 43°54' W 078°42'0 0.0 280 / 91024.3 0.5-6.9
2014-Nov-16 01:00N 43°54' W 078°42'0 0.0 260 / 71024.7 0.7-6.2
2014-Nov-16 00:00N 43°54' W 078°42'0 0.0 270 / 51025.0 0.6-7.1
2014-Nov-15 23:00N 43°54' W 078°42'0 0.0 290 / 91024.8 0.8-7.4
2014-Nov-15 22:00N 43°54' W 078°42'0 0.0 280 / 151024.3 1.3-7.8
2014-Nov-15 21:00N 43°54' W 078°42'0 0.0 240 / 241023.7 1.7-6.1
2014-Nov-15 20:00N 43°54' W 078°42'0 0.0 240 / 231023.9 2.3-5.7 6.0
2014-Nov-15 19:00N 43°54' W 078°42'0 0.0 230 / 191024.5 2.1-5.0 6.2
2014-Nov-15 18:00N 43°54' W 078°42'0 0.0 240 / 151025.1 2.1-2.8 6.1
2014-Nov-15 17:00N 43°54' W 078°42'1313.0 240 / 141025.2 1.6-3.3 5.9
2014-Nov-15 16:00N 43°54' W 078°24'1110.5 260 / 101026.3 0.8-2.2 5.2
2014-Nov-15 15:00N 43°48' W 078°12'1313.0 270 / 111026.2 0.5-3.9 5.3
2014-Nov-15 14:00N 43°48' W 077°54'1313.0 280 / 91026.0 0.5-5.6 5.8
2014-Nov-15 13:00N 43°48' W 077°36'9 8.7 290 / 81025.5 0.6-7.3 7.4
2014-Nov-15 12:00N 43°48' W 077°24'1313.0 300 / 121024.9 0.7-8.3 8.5
2014-Nov-15 11:00N 43°48' W 077°06'1110.5 310 / 111024.9 -0.1-8.110.9
2014-Nov-15 10:00N 43°54' W 076°54'7 7.4 290 / 171024.5 -1.2-7.0 9.5
2014-Nov-15 09:00N 44°00' W 076°48'7 7.4 290 / 121024.2 -1.9-7.010.2
2014-Nov-15 08:00N 44°06' W 076°54'9 8.6 280 / 101024.2 -2.7-6.010.3
2014-Nov-15 07:00N 44°06' W 077°06'0 0.0 270 / 31023.9 -3.9-7.4
2014-Nov-15 06:00N 44°06' W 077°06'0 0.0 270 / 31023.6 -3.8-7.1
2014-Nov-15 05:00N 44°06' W 077°06'0 0.0 1023.2 -2.8-6.5
2014-Nov-15 04:00N 44°06' W 077°06'0 0.0 250 / 31022.6 -3.3-7.0
2014-Nov-15 03:00N 44°06' W 077°06'0 0.0 230 / 11022.3 -2.6-6.9
2014-Nov-15 02:00N 44°06' W 077°06'0 0.0 270 / 51021.8 -2.6-7.5
2014-Nov-15 01:00N 44°06' W 077°06'0 0.0 260 / 41021.3 -1.9-8.1
2014-Nov-15 00:00N 44°06' W 077°06'0 0.0 260 / 41020.6 -1.5-8.2
2014-Nov-14 23:00N 44°06' W 077°06'0 0.0 260 / 51019.8 -0.9-9.1
2014-Nov-14 22:00N 44°06' W 077°06'0 0.0 240 / 31019.1 -0.2-8.7
2014-Nov-14 19:00N 44°06' W 077°06'0 0.0 270 / 71017.3 1.8-8.3
2014-Nov-14 18:00N 44°06' W 077°06'0 0.0 280 / 71017.4 1.4-7.6 9.2
2014-Nov-14 16:00N 44°06' W 077°06'0 0.0 290 / 61017.8 0.8-4.7 7.9
2014-Nov-14 15:00N 44°06' W 077°06'0 0.0 310 / 141017.1 -1.1-4.1 8.3
2014-Nov-14 12:00N 44°06' W 077°06'0 0.0 250 / 151016.0 -1.9-4.7
2014-Nov-14 07:00N 44°06' W 077°06'0 0.0 270 / 161015.7 -1.3-4.7
2014-Nov-14 06:00N 44°06' W 077°06'0 0.0 280 / 141015.8 -0.9-4.2
2014-Nov-14 05:00N 44°06' W 077°06'0 0.0 270 / 131016.0 -0.5-3.4
2014-Nov-14 04:00N 44°06' W 077°06'0 0.0 270 / 111016.1 -0.2-2.2
2014-Nov-14 03:00N 44°06' W 077°06'0 0.0 270 / 81016.4 -0.1-1.6 8.9
2014-Nov-14 02:00N 44°06' W 077°06'0 0.0 300 / 131016.3 0.5-2.1 8.8
2014-Nov-14 01:00N 44°06' W 077°06'7 7.4 270 / 111016.1 1.1-1.5 8.8
2014-Nov-14 00:00N 44°00' W 077°00'1110.5 260 / 171015.4 1.8-2.311.1
2014-Nov-13 23:00N 44°06' W 076°48'1212.0 260 / 141015.4 1.4-1.910.8
2014-Nov-13 22:00N 43°54' W 076°48'7 7.4 270 / 201016.0 1.6-0.910.4
2014-Nov-13 21:00N 43°48' W 076°54'1414.3 270 / 161016.6 1.5-1.210.6
2014-Nov-13 20:00N 43°42' W 077°12'1313.0 280 / 181016.8 1.7-1.0 9.8
2014-Nov-13 19:00N 43°42' W 077°30'1414.3 240 / 151017.1 2.1 1.210.3
2014-Nov-13 18:00N 43°36' W 077°48'1313.0 260 / 181017.6 2.1 0.510.1
2014-Nov-13 17:00N 43°36' W 078°06'1110.6 240 / 161018.5 2.1 0.210.2
2014-Nov-13 16:00N 43°30' W 078°18'1414.4 230 / 161019.2 2.2-0.1 9.6
2014-Nov-13 15:00N 43°24' W 078°36'1313.1 260 / 141019.5 2.9-2.3 8.3
2014-Nov-13 14:00N 43°24' W 078°54'1110.6 270 / 161019.8 2.4-3.1 8.6
2014-Nov-13 13:00N 43°18' W 079°06'7 7.4 270 / 151020.0 1.9-3.4 8.0
2014-Nov-13 12:00N 43°12' W 079°12'0 0.0 260 / 71018.6 1.4-3.310.1
2014-Nov-13 11:00N 43°12' W 079°12'0 0.0 270 / 111018.0 1.5-3.910.1
2014-Nov-13 10:00N 43°12' W 079°12'0 0.0 260 / 81016.9 1.1-4.3 9.9
2014-Nov-13 09:00N 43°12' W 079°12'6 6.0 270 / 8 0.9-5.3 9.9
2014-Nov-13 08:00N 43°06' W 079°12'0 0.0 270 / 6 0.8-5.510.1
2014-Nov-13 07:00N 43°06' W 079°12'0 0.0 270 / 10 0.5-6.3 9.9
2014-Nov-13 06:00N 43°06' W 079°12'6 6.0 280 / 11 0.5-6.3 9.8
2014-Nov-13 05:00N 43°00' W 079°12'   280 / 7 0.8-6.110.2

Dump ship's entire track history